createdAt,value
2022-08-16T00:01:42.523Z,22.68
2022-08-16T00:04:12.519Z,22.64
2022-08-16T00:06:40.321Z,22.65
2022-08-16T00:09:07.888Z,22.63
2022-08-16T00:11:41.429Z,22.65
2022-08-16T00:14:23.837Z,22.64
2022-08-16T00:17:16.146Z,22.68
2022-08-16T00:19:46.205Z,22.62
2022-08-16T00:22:15.407Z,22.60
2022-08-16T00:24:46.841Z,22.59
2022-08-16T00:27:18.092Z,22.56
2022-08-16T00:29:45.778Z,22.52
2022-08-16T00:32:17.953Z,22.42
2022-08-16T00:34:53.171Z,22.41
2022-08-16T00:37:58.744Z,22.30
2022-08-16T00:40:33.994Z,22.25
2022-08-16T00:43:11.899Z,22.25
2022-08-16T00:46:34.904Z,22.21
2022-08-16T00:49:17.759Z,22.19
2022-08-16T00:51:55.242Z,22.23
2022-08-16T00:54:28.083Z,22.26
2022-08-16T00:56:59.900Z,22.27
2022-08-16T00:59:33.004Z,22.28
2022-08-16T01:02:30.571Z,22.23
2022-08-16T01:05:10.383Z,22.17
2022-08-16T01:07:50.562Z,22.06
2022-08-16T01:10:31.411Z,21.92
2022-08-16T01:13:15.856Z,21.80
2022-08-16T01:15:56.343Z,21.76
2022-08-16T01:18:39.112Z,21.80
2022-08-16T01:21:33.714Z,21.80
2022-08-16T01:24:53.626Z,21.82
2022-08-16T01:27:12.386Z,21.61
2022-08-16T01:29:57.587Z,21.54
2022-08-16T01:32:33.187Z,21.46
2022-08-16T01:35:06.755Z,21.51
2022-08-16T01:37:54.114Z,21.54
2022-08-16T01:40:30.954Z,21.56
2022-08-16T01:42:58.609Z,21.59
2022-08-16T01:45:39.660Z,21.64
2022-08-16T01:48:19.972Z,21.67
2022-08-16T01:51:09.052Z,21.67
2022-08-16T01:53:40.442Z,21.66
2022-08-16T01:56:24.996Z,21.68
2022-08-16T01:58:55.708Z,21.70
2022-08-16T02:01:28.089Z,21.71
2022-08-16T02:03:58.680Z,21.73
2022-08-16T02:06:46.785Z,21.73
2022-08-16T02:09:17.896Z,21.70
2022-08-16T02:11:53.070Z,21.72
2022-08-16T02:14:27.927Z,21.64
2022-08-16T02:17:02.406Z,21.53
2022-08-16T02:20:00.108Z,21.44
2022-08-16T02:22:34.159Z,21.44
2022-08-16T02:25:11.783Z,21.43
2022-08-16T02:27:50.782Z,21.43
2022-08-16T02:30:37.946Z,21.40
2022-08-16T02:33:15.499Z,21.36
2022-08-16T02:35:53.765Z,21.37
2022-08-16T02:38:24.027Z,21.38
2022-08-16T02:40:54.656Z,21.37
2022-08-16T02:43:26.878Z,21.37
2022-08-16T02:45:57.002Z,21.36
2022-08-16T02:48:29.460Z,21.30
2022-08-16T02:51:06.146Z,21.31
2022-08-16T02:53:44.808Z,21.28
2022-08-16T02:56:15.628Z,21.28
2022-08-16T02:58:46.387Z,21.25
2022-08-16T03:01:24.578Z,21.21
2022-08-16T03:04:29.651Z,21.13
2022-08-16T03:06:56.755Z,21.05
2022-08-16T03:09:28.689Z,21.04
2022-08-16T03:11:57.566Z,20.94
2022-08-16T03:14:26.431Z,20.93
2022-08-16T03:16:59.256Z,20.91
2022-08-16T03:19:48.491Z,20.92
2022-08-16T03:22:28.856Z,20.94
2022-08-16T03:25:02.422Z,20.95
2022-08-16T03:27:32.771Z,21.01
2022-08-16T03:30:16.207Z,21.01
2022-08-16T03:32:47.182Z,20.94
2022-08-16T03:35:18.179Z,20.91
2022-08-16T03:38:01.503Z,20.90
2022-08-16T03:40:33.940Z,20.91
2022-08-16T03:43:20.366Z,20.90
2022-08-16T03:45:52.792Z,20.85
2022-08-16T03:48:36.415Z,20.79
2022-08-16T03:51:09.531Z,20.78
2022-08-16T03:53:38.439Z,20.84
2022-08-16T03:56:19.912Z,20.84
2022-08-16T03:58:51.056Z,20.83
2022-08-16T04:01:22.867Z,20.79
2022-08-16T04:03:52.932Z,20.83
2022-08-16T04:06:23.020Z,20.84
2022-08-16T04:08:50.672Z,20.84
2022-08-16T04:11:18.802Z,20.89
2022-08-16T04:14:00.302Z,20.90
2022-08-16T04:16:35.225Z,20.94
2022-08-16T04:19:04.804Z,21.03
2022-08-16T04:21:36.195Z,21.08
2022-08-16T04:24:14.566Z,21.13
2022-08-16T04:26:46.280Z,21.18
2022-08-16T04:29:23.785Z,21.24
2022-08-16T04:31:56.873Z,21.29
2022-08-16T04:34:30.997Z,21.34
2022-08-16T04:37:01.390Z,21.41
2022-08-16T04:39:44.985Z,21.46
2022-08-16T04:42:26.548Z,21.47
2022-08-16T04:44:58.530Z,21.48
2022-08-16T04:47:33.250Z,21.47
2022-08-16T04:50:18.155Z,21.45
2022-08-16T04:52:48.619Z,21.53
2022-08-16T04:55:37.655Z,21.53
2022-08-16T04:58:38.489Z,21.61
2022-08-16T05:00:55.454Z,21.69
2022-08-16T05:03:26.155Z,21.73
2022-08-16T05:05:59.580Z,21.77
2022-08-16T05:08:34.172Z,21.82
2022-08-16T05:11:08.524Z,21.86
2022-08-16T05:13:42.654Z,21.89
2022-08-16T05:16:24.514Z,21.89
2022-08-16T05:18:58.475Z,21.96
2022-08-16T05:21:38.298Z,21.95
2022-08-16T05:24:09.253Z,22.05
2022-08-16T05:26:40.967Z,22.03
2022-08-16T05:29:15.241Z,22.07
2022-08-16T05:31:44.256Z,22.11
2022-08-16T05:34:19.870Z,22.13
2022-08-16T05:36:51.174Z,22.21
2022-08-16T05:39:20.558Z,22.31
2022-08-16T05:41:49.096Z,22.37
2022-08-16T05:44:24.857Z,22.47
2022-08-16T05:46:56.022Z,22.47
2022-08-16T05:49:25.400Z,22.38
2022-08-16T05:52:10.833Z,22.23
2022-08-16T05:54:47.676Z,22.30
2022-08-16T05:57:26.631Z,22.47
2022-08-16T06:00:08.961Z,22.56
2022-08-16T06:02:37.774Z,22.54
2022-08-16T06:05:06.472Z,22.51
2022-08-16T06:07:39.164Z,22.66
2022-08-16T06:10:09.770Z,22.60
2022-08-16T06:12:37.942Z,22.73
2022-08-16T06:15:16.655Z,22.79
2022-08-16T06:17:45.529Z,22.78
2022-08-16T06:20:25.731Z,22.96
2022-08-16T06:23:11.611Z,23.11
2022-08-16T06:25:44.590Z,23.18
2022-08-16T06:28:36.127Z,23.33
2022-08-16T06:31:06.884Z,23.43
2022-08-16T06:33:41.746Z,23.59
2022-08-16T06:36:14.235Z,23.76
2022-08-16T06:38:55.647Z,23.95
2022-08-16T06:41:27.405Z,24.20
2022-08-16T06:43:56.559Z,24.71
2022-08-16T06:46:31.649Z,25.81
2022-08-16T06:49:05.602Z,26.25
2022-08-16T06:51:45.871Z,26.39
2022-08-16T06:54:16.737Z,26.43
2022-08-16T06:56:44.101Z,26.50
2022-08-16T06:59:11.525Z,26.51
2022-08-16T07:01:46.239Z,26.55
2022-08-16T07:04:33.380Z,26.41
2022-08-16T07:07:06.307Z,26.43
2022-08-16T07:09:37.706Z,26.42
2022-08-16T07:12:05.969Z,26.22
2022-08-16T07:14:35.046Z,26.34
2022-08-16T07:17:03.391Z,26.47
2022-08-16T07:20:03.865Z,26.58
2022-08-16T07:22:37.051Z,26.77
2022-08-16T07:25:14.206Z,26.84
2022-08-16T07:27:43.633Z,26.97
2022-08-16T07:30:39.319Z,27.01
2022-08-16T07:33:07.158Z,27.06
2022-08-16T07:35:35.170Z,27.14
2022-08-16T07:38:06.231Z,27.21
2022-08-16T07:41:00.638Z,27.34
2022-08-16T07:43:29.296Z,27.46
2022-08-16T07:45:57.339Z,27.47
2022-08-16T07:48:24.561Z,27.38
2022-08-16T07:50:56.627Z,27.36
2022-08-16T07:53:29.533Z,27.42
2022-08-16T07:56:00.656Z,27.69
2022-08-16T07:58:34.858Z,27.84
2022-08-16T08:01:10.600Z,27.95
2022-08-16T08:03:48.188Z,28.04
2022-08-16T08:06:24.930Z,27.99
2022-08-16T08:08:59.216Z,28.34
2022-08-16T08:11:29.900Z,28.46
2022-08-16T08:14:03.559Z,28.53
2022-08-16T08:16:33.233Z,28.53
2022-08-16T08:19:02.797Z,28.42
2022-08-16T08:22:00.150Z,28.44
2022-08-16T08:24:32.059Z,28.74
2022-08-16T08:27:04.348Z,28.83
2022-08-16T08:29:37.496Z,29.11
2022-08-16T08:32:57.945Z,29.29
2022-08-16T08:35:03.303Z,29.30
2022-08-16T08:37:51.175Z,29.47
2022-08-16T08:40:24.730Z,29.29
2022-08-16T08:43:11.751Z,29.62
2022-08-16T08:45:48.058Z,29.85
2022-08-16T08:48:33.246Z,30.05
2022-08-16T08:51:08.936Z,30.22
2022-08-16T08:53:38.281Z,30.36
2022-08-16T08:56:22.939Z,30.58
2022-08-16T08:58:58.877Z,30.90
2022-08-16T09:01:42.882Z,31.17
2022-08-16T09:04:14.712Z,31.43
2022-08-16T09:06:47.033Z,31.66
2022-08-16T09:09:16.863Z,31.87
2022-08-16T09:11:52.717Z,32.23
2022-08-16T09:14:28.317Z,32.86
2022-08-16T09:17:01.128Z,36.24
2022-08-16T09:19:34.721Z,42.47
2022-08-16T09:22:02.274Z,48.12
2022-08-16T09:24:51.388Z,52.43
2022-08-16T09:27:17.654Z,56.23
2022-08-16T09:29:46.380Z,58.69
2022-08-16T09:32:28.919Z,59.42
2022-08-16T09:35:01.657Z,62.25
2022-08-16T09:37:36.564Z,64.25
2022-08-16T09:40:31.888Z,66.18
2022-08-16T09:42:59.410Z,66.69
2022-08-16T09:45:29.021Z,68.09
2022-08-16T09:47:58.433Z,69.11
2022-08-16T09:50:37.236Z,70.27
2022-08-16T09:53:23.147Z,70.94
2022-08-16T09:55:56.858Z,67.87
2022-08-16T09:58:40.429Z,70.10
2022-08-16T10:01:08.740Z,71.42
2022-08-16T10:04:02.112Z,71.24
2022-08-16T10:06:33.454Z,71.68
2022-08-16T10:09:08.327Z,71.70
2022-08-16T10:12:11.040Z,73.01
2022-08-16T10:14:40.818Z,73.61
2022-08-16T10:17:13.664Z,74.02
2022-08-16T10:19:43.321Z,74.22
2022-08-16T10:22:12.731Z,74.33
2022-08-16T10:24:55.980Z,74.53
2022-08-16T10:27:45.674Z,74.88
2022-08-16T10:30:24.770Z,73.84
2022-08-16T10:32:54.210Z,74.48
2022-08-16T10:35:21.658Z,74.59
2022-08-16T10:37:52.400Z,74.68
2022-08-16T10:40:29.154Z,74.20
2022-08-16T10:43:02.380Z,75.01
2022-08-16T10:45:37.083Z,75.65
2022-08-16T10:48:23.932Z,76.05
2022-08-16T10:51:00.319Z,76.48
2022-08-16T10:53:34.059Z,75.81
2022-08-16T10:56:52.770Z,76.17
2022-08-16T10:59:29.630Z,76.06
2022-08-16T11:02:21.711Z,74.83
2022-08-16T11:13:56.909Z,56.04
2022-08-16T11:15:55.379Z,54.50
2022-08-16T11:19:03.900Z,52.52
2022-08-16T11:21:28.511Z,51.34
2022-08-16T11:23:58.811Z,50.18
2022-08-16T11:26:27.417Z,49.06
2022-08-16T11:29:13.269Z,48.03
2022-08-16T11:31:42.506Z,47.17
2022-08-16T11:34:14.740Z,46.53
2022-08-16T11:36:53.745Z,46.04
2022-08-16T11:39:30.436Z,45.21
2022-08-16T11:41:59.502Z,43.68
2022-08-16T11:44:52.905Z,43.95
2022-08-16T11:47:14.608Z,43.88
2022-08-16T11:49:41.978Z,43.59
2022-08-16T11:52:09.225Z,43.51
2022-08-16T11:54:37.524Z,43.47
2022-08-16T11:57:09.211Z,43.23
2022-08-16T11:59:40.032Z,43.16
2022-08-16T12:02:32.067Z,42.53
2022-08-16T12:04:57.837Z,42.87
2022-08-16T12:07:25.296Z,42.64
2022-08-16T12:09:55.807Z,42.60
2022-08-16T12:12:24.037Z,42.66
2022-08-16T12:14:59.846Z,42.20
2022-08-16T12:17:32.764Z,41.13
2022-08-16T12:20:02.259Z,41.65
2022-08-16T12:22:34.019Z,41.65
2022-08-16T12:25:17.818Z,41.48
2022-08-16T12:27:49.859Z,41.58
2022-08-16T12:30:26.976Z,41.83
2022-08-16T12:33:03.083Z,41.81
2022-08-16T12:35:33.417Z,41.84
2022-08-16T12:38:08.674Z,41.81
2022-08-16T12:40:55.531Z,42.29
2022-08-16T12:43:25.532Z,42.30
2022-08-16T12:45:55.846Z,42.19
2022-08-16T12:48:50.369Z,42.08
2022-08-16T12:51:24.075Z,42.14
2022-08-16T12:53:55.078Z,41.94
2022-08-16T12:56:29.739Z,41.35
2022-08-16T12:58:57.887Z,40.61
2022-08-16T13:01:34.178Z,40.19
2022-08-16T13:04:20.813Z,39.94
2022-08-16T13:06:52.454Z,39.77
2022-08-16T13:09:26.569Z,39.83
2022-08-16T13:12:15.952Z,39.82
2022-08-16T13:14:46.783Z,39.88
2022-08-16T13:17:29.846Z,39.69
2022-08-16T13:20:13.637Z,39.40
2022-08-16T13:22:50.960Z,39.51
2022-08-16T13:25:25.214Z,39.46
2022-08-16T13:28:02.343Z,39.39
2022-08-16T13:30:42.524Z,39.14
2022-08-16T13:33:29.559Z,39.23
2022-08-16T13:36:00.934Z,38.97
2022-08-16T13:38:32.654Z,39.10
2022-08-16T13:41:10.089Z,38.98
2022-08-16T13:43:39.449Z,38.92
2022-08-16T13:46:08.041Z,38.70
2022-08-16T13:48:44.067Z,38.61
2022-08-16T13:51:18.907Z,38.74
2022-08-16T13:53:49.662Z,38.91
2022-08-16T13:56:25.308Z,38.83
2022-08-16T13:58:54.874Z,38.80
2022-08-16T14:01:23.437Z,38.57
2022-08-16T14:03:54.562Z,38.86
2022-08-16T14:06:23.223Z,38.98
2022-08-16T14:08:59.140Z,39.01
2022-08-16T14:11:34.993Z,38.93
2022-08-16T14:14:05.703Z,39.11
2022-08-16T14:16:34.860Z,39.08
2022-08-16T14:19:03.896Z,39.22
2022-08-16T14:21:34.979Z,39.18
2022-08-16T14:24:22.130Z,39.22
2022-08-16T14:26:53.090Z,39.15
2022-08-16T14:29:21.210Z,39.06
2022-08-16T14:31:54.138Z,39.02
2022-08-16T14:34:25.730Z,38.94
2022-08-16T14:36:56.456Z,38.68
2022-08-16T14:39:24.265Z,38.59
2022-08-16T14:41:53.480Z,38.44
2022-08-16T14:44:23.870Z,38.18
2022-08-16T14:46:53.741Z,38.18
2022-08-16T14:49:20.994Z,38.09
2022-08-16T14:51:49.076Z,38.01
2022-08-16T14:54:16.563Z,37.92
2022-08-16T14:56:47.014Z,37.98
2022-08-16T14:59:24.027Z,37.69
2022-08-16T15:01:59.112Z,37.62
2022-08-16T15:04:47.742Z,37.54
2022-08-16T15:07:21.739Z,37.36
2022-08-16T15:10:01.675Z,37.32
2022-08-16T15:12:34.078Z,37.19
2022-08-16T15:15:12.505Z,37.02
2022-08-16T15:17:55.916Z,36.92
2022-08-16T15:20:29.540Z,36.85
2022-08-16T15:23:01.536Z,36.61
2022-08-16T15:25:41.205Z,36.38
2022-08-16T15:28:30.689Z,36.35
2022-08-16T15:31:03.633Z,36.27
2022-08-16T15:33:35.664Z,36.14
2022-08-16T15:36:07.855Z,35.79
2022-08-16T15:39:03.785Z,35.49
2022-08-16T15:41:38.773Z,35.28
2022-08-16T15:44:11.113Z,35.15
2022-08-16T15:46:56.906Z,34.79
2022-08-16T15:49:38.039Z,34.66
2022-08-16T15:52:29.756Z,34.46
2022-08-16T15:55:07.501Z,34.28
2022-08-16T15:57:41.461Z,34.06
2022-08-16T16:00:15.414Z,33.98
2022-08-16T16:02:44.094Z,33.87
2022-08-16T16:05:11.909Z,33.78
2022-08-16T16:07:55.837Z,33.71
2022-08-16T16:10:29.897Z,33.60
2022-08-16T16:13:00.934Z,33.60
2022-08-16T16:15:36.860Z,33.56
2022-08-16T16:18:09.678Z,33.50
2022-08-16T16:20:46.660Z,33.42
2022-08-16T16:23:23.571Z,33.36
2022-08-16T16:25:53.194Z,33.31
2022-08-16T16:29:05.393Z,33.23
2022-08-16T16:31:16.043Z,33.15
2022-08-16T16:33:47.780Z,33.07
2022-08-16T16:36:24.246Z,33.02
2022-08-16T16:38:54.544Z,33.00
2022-08-16T16:41:26.493Z,33.00
2022-08-16T16:43:56.077Z,33.01
2022-08-16T16:46:42.042Z,33.01
2022-08-16T16:49:14.049Z,32.91
2022-08-16T16:51:47.035Z,32.83
2022-08-16T16:54:28.044Z,32.74
2022-08-16T16:56:59.113Z,32.69
2022-08-16T16:59:28.471Z,32.63
2022-08-16T17:02:46.312Z,32.63
2022-08-16T17:04:48.696Z,32.63
2022-08-16T17:07:17.595Z,32.60
2022-08-16T17:09:47.947Z,32.53
2022-08-16T17:12:25.421Z,32.50
2022-08-16T17:15:05.320Z,32.44
2022-08-16T17:17:59.410Z,32.44
2022-08-16T17:20:25.200Z,32.46
2022-08-16T17:22:56.700Z,32.41
2022-08-16T17:25:27.191Z,32.35
2022-08-16T17:28:57.992Z,32.25
2022-08-16T17:30:54.510Z,32.17
2022-08-16T17:33:22.748Z,32.10
2022-08-16T17:35:55.313Z,32.05
2022-08-16T17:38:38.617Z,31.96
2022-08-16T17:41:12.652Z,31.86
2022-08-16T17:43:43.911Z,31.77
2022-08-16T17:46:50.734Z,31.67
2022-08-16T17:49:01.794Z,31.55
2022-08-16T17:51:29.008Z,31.44
2022-08-16T17:53:56.871Z,31.31
2022-08-16T17:56:24.447Z,31.20
2022-08-16T17:58:51.985Z,31.06
2022-08-16T18:01:26.561Z,30.91
2022-08-16T18:04:07.947Z,30.82
2022-08-16T18:06:38.739Z,30.71
2022-08-16T18:09:07.999Z,30.58
2022-08-16T18:11:42.978Z,30.43
2022-08-16T18:14:13.305Z,30.32
2022-08-16T18:16:41.453Z,30.17
2022-08-16T18:19:10.365Z,30.09
2022-08-16T18:21:56.402Z,30.00
2022-08-16T18:24:24.935Z,29.90
2022-08-16T18:26:53.154Z,29.81
2022-08-16T18:29:21.334Z,29.70
2022-08-16T18:31:50.998Z,29.57
2022-08-16T18:34:20.791Z,29.43
2022-08-16T18:36:48.413Z,29.30
2022-08-16T18:39:16.349Z,29.19
2022-08-16T18:41:47.175Z,29.12
2022-08-16T18:44:25.567Z,29.09
2022-08-16T18:46:55.653Z,29.06
2022-08-16T18:49:22.959Z,29.05
2022-08-16T18:51:51.053Z,29.01
2022-08-16T18:54:18.746Z,28.99
2022-08-16T18:56:54.271Z,28.97
2022-08-16T18:59:30.682Z,28.91
2022-08-16T19:02:04.854Z,28.73
2022-08-16T19:04:56.454Z,28.40
2022-08-16T19:07:31.151Z,28.12
2022-08-16T19:10:01.721Z,27.99
2022-08-16T19:12:38.898Z,27.79
2022-08-16T19:15:17.096Z,27.58
2022-08-16T19:17:45.678Z,27.57
2022-08-16T19:20:17.874Z,27.40
2022-08-16T19:25:48.859Z,27.09
2022-08-16T19:28:49.014Z,27.06
2022-08-16T19:31:28.899Z,26.98
2022-08-16T19:33:57.614Z,26.92
2022-08-16T19:36:35.643Z,26.92
2022-08-16T19:39:14.585Z,26.94
2022-08-16T19:41:53.009Z,27.00
2022-08-16T19:44:23.441Z,27.03
2022-08-16T19:46:51.397Z,27.06
2022-08-16T19:49:18.803Z,27.06
2022-08-16T19:51:48.122Z,27.10
2022-08-16T19:54:16.456Z,27.15
2022-08-16T19:56:43.967Z,27.15
2022-08-16T19:59:20.871Z,27.18
2022-08-16T20:01:52.649Z,27.18
2022-08-16T20:04:22.766Z,27.14
2022-08-16T20:06:52.457Z,27.11
2022-08-16T20:09:22.220Z,27.10
2022-08-16T20:11:52.473Z,27.07
2022-08-16T20:14:25.185Z,27.03
2022-08-16T20:16:56.781Z,27.04
2022-08-16T20:19:27.761Z,27.01
2022-08-16T20:21:56.916Z,26.97
2022-08-16T20:24:35.113Z,26.92
2022-08-16T20:27:06.447Z,26.77
2022-08-16T20:29:35.440Z,26.65
2022-08-16T20:32:08.311Z,26.49
2022-08-16T20:34:55.049Z,26.39
2022-08-16T20:37:23.222Z,26.30
2022-08-16T20:40:27.807Z,26.29
2022-08-16T20:42:41.576Z,26.25
2022-08-16T20:45:11.092Z,26.25
2022-08-16T20:47:38.596Z,26.27
2022-08-16T20:50:09.660Z,26.24
2022-08-16T20:52:37.145Z,26.31
2022-08-16T20:55:04.838Z,26.22
2022-08-16T20:57:32.140Z,26.16
2022-08-16T20:59:59.538Z,26.15
2022-08-16T21:02:27.485Z,26.11
2022-08-16T21:04:55.019Z,26.09
2022-08-16T21:07:22.855Z,26.10
2022-08-16T21:09:50.435Z,26.03
2022-08-16T21:12:17.955Z,26.00
2022-08-16T21:14:45.746Z,25.93
2022-08-16T21:17:16.194Z,25.90
2022-08-16T21:19:45.189Z,25.83
2022-08-16T21:22:22.621Z,25.78
2022-08-16T21:24:53.923Z,25.78
2022-08-16T21:27:24.406Z,25.72
2022-08-16T21:29:52.530Z,25.68
2022-08-16T21:32:35.644Z,25.65
2022-08-16T21:35:10.722Z,25.58
2022-08-16T21:37:39.293Z,25.54
2022-08-16T21:40:09.206Z,25.50
2022-08-16T21:42:40.404Z,25.47
2022-08-16T21:45:13.377Z,25.49
2022-08-16T21:47:41.057Z,25.53
2022-08-16T21:50:11.516Z,25.51
2022-08-16T21:52:39.284Z,25.49
2022-08-16T21:55:07.854Z,25.50
2022-08-16T21:57:36.276Z,25.46
2022-08-16T22:00:14.262Z,25.43
2022-08-16T22:02:41.839Z,25.40
2022-08-16T22:05:09.746Z,25.38
2022-08-16T22:07:37.388Z,25.36
2022-08-16T22:11:04.698Z,25.34
2022-08-16T22:12:54.085Z,25.36
2022-08-16T22:15:26.197Z,25.39
2022-08-16T22:17:56.631Z,25.40
2022-08-16T22:20:27.171Z,25.37
2022-08-16T22:23:18.777Z,25.28
2022-08-16T22:25:47.809Z,25.29
2022-08-16T22:28:17.757Z,25.29
2022-08-16T22:30:46.198Z,25.27
2022-08-16T22:33:19.613Z,25.24
2022-08-16T22:35:51.640Z,25.23
2022-08-16T22:38:53.676Z,25.15
2022-08-16T22:41:07.695Z,25.10
2022-08-16T22:43:35.102Z,25.07
2022-08-16T22:46:02.471Z,25.06
2022-08-16T22:48:29.707Z,25.03
2022-08-16T22:50:57.160Z,24.96
2022-08-16T22:53:26.971Z,24.87
2022-08-16T22:55:54.392Z,24.85
2022-08-16T22:58:36.603Z,24.83
2022-08-16T23:01:08.641Z,24.79
2022-08-16T23:03:37.310Z,24.77
2022-08-16T23:06:06.683Z,24.70
2022-08-16T23:08:39.272Z,24.67
2022-08-16T23:11:13.120Z,24.60
2022-08-16T23:13:50.138Z,24.54
2022-08-16T23:16:33.039Z,24.51
2022-08-16T23:19:08.073Z,24.50
2022-08-16T23:21:38.561Z,24.48
2022-08-16T23:24:08.430Z,24.49
2022-08-16T23:26:45.574Z,24.45
2022-08-16T23:29:23.432Z,24.41
2022-08-16T23:31:56.229Z,24.30
2022-08-16T23:34:24.315Z,24.32
2022-08-16T23:36:51.719Z,24.26
2022-08-16T23:39:19.020Z,24.18
2022-08-16T23:41:46.463Z,24.19
2022-08-16T23:44:55.286Z,24.20
2022-08-16T23:47:01.082Z,24.15
2022-08-16T23:49:56.418Z,24.12
2022-08-16T23:52:16.957Z,23.99
2022-08-16T23:54:44.165Z,23.96
2022-08-16T23:57:11.421Z,23.89
2022-08-16T23:59:53.627Z,23.87
